Weather observations for the past three days for
Lajitas International Airport
Metric (Imperial)
Date Time (cdt) Wind (kph) Vis. (km) Weather Sky Cond. Temperature (ºC) Relative Humidity Wind Chill (°C) Heat Index (°C) Pressure Precipitation (cm)
Air Dwpt 6 hour altimeter (cm) sea level (mb) 1 hr 3 hr 6 hr
Max. Min.
06 16:15 Vrbl 6 G 26 16.09 Fair CLR 30 -2 12% 28 75.87 0.0
06 15:55 NW 17 G 26 16.09 Fair CLR 30 -2 12% 28 75.9 0.0
06 15:35 N 13 16.09 Fair CLR 30 -1 13% 28 75.9 0.0
06 15:15 NW 19 16.09 Fair CLR 30 -1 13% 28 75.9 0.0
06 14:55 NW 15 16.09 Fair CLR 30 -1 13% 28 75.92 0.0
06 14:35 NW 15 G 28 16.09 Fair CLR 30 -1 13% 28 75.92 0.0
06 14:15 NW 13 G 26 16.09 Fair CLR 30 -1 13% 28 75.95 0.0
06 13:55 NW 17 G 31 16.09 Fair CLR 30 -1 13% 28 75.95 0.0
06 13:35 NW 20 G 30 16.09 Fair CLR 30 -1 13% 28 75.97 0.0
06 13:15 NW 19 16.09 Fair CLR 30 -1 13% 28 75.97 0.0
06 12:55 NW 26 G 35 16.09 Fair CLR 30 -1 13% 28 76 0.0
06 12:35 NW 28 16.09 Fair CLR 31 0 13% 29 76 0.0
06 12:15 NW 24 G 35 16.09 Fair CLR 30 0 14% 28 76 0.0
06 11:55 NW 22 16.09 Fair CLR 29 0 15% 27 76 0.0
06 11:35 NW 26 16.09 Fair CLR 29 0 15% 27 75.97 0.0
06 11:15 NW 19 16.09 Fair CLR 29 0 15% 27 76 0.0
06 10:55 NW 6 16.09 Fair CLR 28 0 16% 27 75.97 0.0
06 10:35 W 7 16.09 Fair CLR 27 0 17% 26 75.97 0.0
06 10:15 Calm 16.09 Fair CLR 27 -1 16% 26 75.97 0.0
06 09:55 Calm 16.09 Fair CLR 26 0 18% 25 75.97 0.0
06 09:35 Calm 16.09 Fair CLR 26 0 18% 25 75.97 0.0
06 09:15 Calm 16.09 Fair CLR 25 0 19% 25 75.95 0.0
06 08:55 Calm 16.09 Fair CLR 24 0 21% 25 75.95 0.0
06 08:35 Calm 16.09 Fair CLR 22 0 23% 75.95 0.0
06 08:15 N 6 16.09 Fair CLR 22 0 23% 75.92 0.0
06 07:55 Calm 16.09 Fair CLR 23 0 22% 75.9 0.0
06 07:35 Calm 16.09 Fair CLR 23 0 22% 75.9 0.0
06 07:15 Calm 16.09 Fair CLR 22 0 23% 75.87 0.0
06 06:55 Calm 16.09 Fair CLR 23 0 22% 75.84 0.0
06 06:35 Calm 16.09 Fair CLR 24 0 21% 25 75.82 0.0
06 06:15 Calm 16.09 Partly Cloudy FEW037 SCT045 24 0 21% 25 75.82 0.0
06 05:55 Calm 16.09 Mostly Cloudy FEW029 SCT037 BKN045 25 0 19% 25 75.79 0.0
06 05:35 Calm 16.09 A Few Clouds FEW045 FEW050 24 0 21% 25 75.79 0.0
06 05:15 Calm 16.09 Fair CLR 24 0 21% 25 75.77 0.0
06 04:55 W 7 16.09 Fair CLR 25 0 19% 25 75.77 0.0
06 04:35 W 9 16.09 Fair CLR 26 0 18% 25 75.77 0.0
06 04:15 Calm 16.09 Fair CLR 27 2 20% 26 75.74 0.0
06 03:55 Calm 16.09 Fair CLR 26 2 21% 26 75.74 0.0
06 03:35 NW 7 16.09 Fair CLR 26 1 20% 25 75.72 0.0
06 03:15 NW 9 16.09 Fair CLR 24 -1 19% 24 75.74 0.0
06 02:55 NW 9 16.09 Fair CLR 25 -1 18% 25 75.72 0.0
06 02:35 Calm 16.09 Fair CLR 26 0 18% 25 75.72 0.0
06 02:15 Calm 16.09 Fair CLR 27 -1 16% 26 75.72 0.0
06 01:55 Calm 16.09 Fair CLR 27 -1 16% 26 75.72 0.0
06 01:35 Calm 16.09 Fair CLR 28 -1 15% 27 75.72 0.0
06 01:15 Vrbl 7 16.09 Fair CLR 28 -1 15% 27 75.72 0.0
06 00:55 Calm 16.09 Fair CLR 28 -2 14% 27 75.72 0.0
06 00:35 NE 17 16.09 Fair CLR 29 -2 13% 27 75.72 0.0
06 00:15 NE 15 16.09 Fair CLR 29 -3 12% 27 75.72 0.0
05 23:55 NE 19 16.09 Fair CLR 29 -3 12% 27 75.72 0.0
05 23:35 NE 15 16.09 Fair CLR 29 -3 12% 27 75.69 0.0
05 23:15 N 15 16.09 Fair CLR 30 -3 11% 28 75.69 0.0
05 22:55 Calm 16.09 Fair CLR 30 -3 11% 28 75.69 0.0
05 22:35 NW 11 G 26 16.09 Fair CLR 30 -3 11% 28 75.64 0.0
05 22:15 N 17 G 30 16.09 Fair CLR 30 -3 11% 28 75.59 0.0
05 21:55 N 22 16.09 Fair CLR 30 -5 10% 28 75.57 0.0
05 21:35 NW 15 16.09 Fair CLR 29 -6 10% 27 75.51 0.0
05 21:15 N 9 16.09 Fair CLR 30 -6 9% 28 75.49 0.0
05 20:55 NW 9 16.09 Fair CLR 31 -6 9% 29 75.44 0.0
05 20:35 N 7 16.09 Fair CLR 33 -6 8% 31 75.41 0.0
05 20:15 NW 9 16.09 Fair CLR 34 -6 7% 31 75.39 0.0
05 19:55 N 11 16.09 Fair CLR 35 -5 7% 32 75.39 0.0
05 19:35 N 9 G 20 16.09 Fair CLR 35 -5 7% 32 75.39 0.0
05 19:15 NW 13 16.09 Fair CLR 36 -5 7% 33 75.39 0.0
05 18:55 W 15 16.09 Fair CLR 36 -5 7% 33 75.39 0.0
05 18:35 N 7 16.09 Fair CLR 36 -4 7% 33 75.39 0.0
05 18:15 N 13 G 24 16.09 Fair CLR 37 -4 7% 34 75.39 0.0
05 17:55 Calm 16.09 Fair CLR 36 -4 7% 33 75.39 0.0
05 17:35 Calm 16.09 Fair CLR 36 -4 7% 33 75.41 0.0
05 17:15 N 15 16.09 Fair CLR 36 -3 8% 33 75.44 0.0
05 16:55 Vrbl 7 16.09 Fair CLR 36 -3 8% 33 75.46 0.0
05 16:30 NW 15 G 26 16.09 Fair CLR 36 -3 8% 33 75.49 0.0
05 16:15 Calm 16.09 Fair CLR 35 -3 9% 32 75.51 0.0
05 15:55 NW 9 16.09 Fair CLR 35 -2 9% 32 75.54 0.0
05 15:35 Calm 16.09 Fair CLR 35 -2 9% 32 75.57 0.0
05 15:15 Vrbl 9 G 24 16.09 Fair CLR 35 -2 9% 32 75.59 0.0
05 14:55 Vrbl 7 16.09 Fair CLR 35 -2 9% 32 75.62 0.0
05 14:35 W 15 G 28 16.09 Fair CLR 35 -2 9% 32 75.64 0.0
05 14:15 Vrbl 7 16.09 Fair CLR 34 -2 10% 31 75.64 0.0
05 13:55 W 17 G 26 16.09 Fair CLR 34 -2 10% 31 75.67 0.0
05 13:35 NW 13 G 24 16.09 Fair CLR 34 -2 10% 31 75.69 0.0
05 13:15 NW 9 16.09 Fair CLR 33 -2 10% 31 75.72 0.0
05 12:55 W 13 G 24 16.09 Fair CLR 33 -1 11% 31 75.74 0.0
05 12:35 W 19 16.09 Fair CLR 33 -1 11% 31 75.74 0.0
05 12:15 Vrbl 6 G 19 16.09 Fair CLR 32 -1 12% 30 75.77 0.0
05 11:55 Calm 16.09 Fair CLR 32 0 13% 30 75.79 0.0
05 11:35 Calm 16.09 Fair CLR 31 0 13% 29 75.79 0.0
05 11:15 Vrbl 7 16.09 Fair CLR 31 0 13% 29 75.79 0.0
05 10:55 Vrbl 7 16.09 Fair CLR 30 -1 13% 28 75.79 0.0
05 10:35 W 9 16.09 Fair CLR 30 0 14% 28 75.79 0.0
05 10:15 W 9 16.09 Fair CLR 28 2 19% 27 75.79 0.0
05 09:55 W 9 16.09 Fair CLR 27 2 20% 26 75.79 0.0
05 09:35 W 7 16.09 Fair CLR 26 2 21% 26 75.77 0.0
05 09:15 NW 6 16.09 Fair CLR 25 2 22% 25 75.77 0.0
05 08:55 NW 7 16.09 Fair CLR 23 2 25% 75.77 0.0
05 08:35 NW 6 16.09 Fair CLR 23 3 27% 75.77 0.0
05 08:15 NW 6 16.09 Fair CLR 21 2 29% 75.74 0.0
05 07:55 W 6 16.09 Fair CLR 20 1 28% 75.72 0.0
05 07:35 NW 7 16.09 Fair CLR 20 1 28% 75.69 0.0
05 07:15 N 7 16.09 A Few Clouds FEW048 19 0 28% 75.67 0.0
05 06:55 Calm 16.09 Mostly Cloudy SCT042 BKN050 19 1 30% 75.67 0.0
05 06:35 Calm 16.09 Overcast BKN042 OVC050 21 2 29% 75.64 0.0
05 06:15 NW 6 16.09 Mostly Cloudy BKN048 19 1 30% 75.64 0.0
05 05:55 NW 9 16.09 A Few Clouds FEW044 FEW050 FEW085 20 2 30% 75.64 0.0
05 05:30 W 9 16.09 Fair CLR 23 3 27% 75.62 0.0
05 05:15 N 7 16.09 Fair CLR 20 1 28% 75.64 0.0
05 04:55 W 6 16.09 Fair CLR 22 2 27% 75.62 0.0
05 04:35 N 6 16.09 Fair CLR 20 1 28% 75.62 0.0
05 04:15 Calm 16.09 Fair CLR 22 2 27% 75.59 0.0
05 03:55 Calm 16.09 Fair CLR 24 2 24% 25 75.59 0.0
05 03:35 Calm 16.09 Fair CLR 23 2 25% 75.59 0.0
05 03:15 Calm 16.09 Fair CLR 23 2 25% 75.59 0.0
05 02:55 Calm 16.09 Fair CLR 23 2 25% 75.62 0.0
05 02:35 Calm 16.09 Fair CLR 24 2 24% 25 75.62 0.0
05 02:15 Calm 16.09 Fair CLR 26 2 21% 26 75.62 0.0
05 01:55 NW 7 16.09 Fair CLR 25 2 22% 25 75.64 0.0
05 01:35 Calm 16.09 Fair CLR 26 2 21% 26 75.64 0.0
05 01:10 Calm 16.09 Fair CLR 25 2 22% 25 75.64 0.0
05 00:55 W 6 16.09 Fair CLR 28 2 19% 27 75.64 0.0
05 00:35 Vrbl 7 16.09 Fair CLR 26 2 21% 26 75.64 0.0
05 00:15 NW 9 16.09 Fair CLR 25 2 22% 25 75.64 0.0
04 23:55 Calm 16.09 Fair CLR 26 2 21% 26 75.64 0.0
04 23:35 NE 6 16.09 Fair CLR 27 2 20% 26 75.64 0.0
04 23:15 E 7 16.09 Fair CLR 28 2 19% 27 75.64 0.0
04 22:55 Calm 16.09 Fair CLR 29 2 18% 27 75.64 0.0
04 22:35 Calm 16.09 Fair CLR 30 2 17% 28 75.62 0.0
04 22:15 Calm 16.09 Fair CLR 29 2 18% 27 75.62 0.0
04 21:55 Calm 16.09 Fair CLR 31 2 16% 29 75.62 0.0
04 21:35 SE 6 16.09 Fair CLR 31 2 16% 29 75.59 0.0
04 21:15 NE 11 16.09 Fair CLR 30 2 17% 28 75.57 0.0
04 20:55 NE 9 16.09 Fair CLR 31 2 16% 29 75.57 0.0
04 20:35 N 6 16.09 Fair CLR 33 2 14% 31 75.57 0.0
04 20:15 N 9 16.09 Fair CLR 33 2 14% 31 75.57 0.0
04 19:55 N 9 G 20 16.09 Fair CLR 34 1 12% 31 75.57 0.0
04 19:35 N 11 G 22 16.09 Fair CLR 34 1 12% 31 75.59 0.0
04 19:15 NW 17 G 30 16.09 Fair CLR 34 0 11% 31 75.59 0.0
04 18:55 NW 15 G 28 16.09 Fair CLR 35 0 11% 32 75.59 0.0
04 18:35 NW 11 G 24 16.09 Fair CLR 35 0 11% 32 75.59 0.0
04 18:15 Vrbl 11 G 24 16.09 Fair CLR 36 -2 9% 33 75.62 0.0
04 17:55 N 15 16.09 Fair CLR 36 -3 8% 33 75.62 0.0
04 17:35 Vrbl 7 16.09 Fair CLR 35 1 11% 32 75.62 0.0
04 17:15 Calm 16.09 Fair CLR 35 2 12% 32 75.64 0.0
04 16:35 Vrbl 6 16.09 Fair CLR 35 6 16% 33 75.67 0.0
04 16:15 Calm 16.09 Fair CLR 34 6 17% 32 75.69 0.0
04 15:55 SE 7 16.09 Fair CLR 33 6 18% 31 75.72 0.0
04 15:35 NE 9 16.09 Fair CLR 33 6 18% 31 75.77 0.0
04 15:15 S 11 16.09 Fair CLR 33 7 20% 31 75.77 0.0
04 14:55 Calm 16.09 Fair CLR 32 7 21% 30 75.82 0.0
04 14:35 SE 7 16.09 Fair CLR 32 7 21% 30 75.84 0.0
04 14:15 Vrbl 6 16.09 Fair CLR 31 8 24% 29 75.87 0.0
04 13:55 S 7 16.09 Fair CLR 30 8 25% 28 75.9 0.0
04 13:35 Calm 16.09 Fair CLR 30 8 25% 28 75.92 0.0
04 13:15 Calm 16.09 Fair CLR 29 8 27% 28 75.95 0.0
04 12:55 Calm 16.09 Fair CLR 28 9 30% 27 75.97 0.0
04 12:35 Vrbl 7 16.09 Fair CLR 28 9 30% 27 75.97 0.0
04 12:15 E 11 16.09 Fair CLR 27 9 32% 27 76 0.0
04 11:55 E 13 16.09 Fair CLR 27 9 32% 27 76.02 0.0
04 11:35 SE 17 16.09 Fair CLR 26 9 34% 26 76.02 0.0
04 10:55 E 17 16.09 Fair CLR 25 9 36% 26 76.02 0.0
04 10:35 E 17 16.09 Fair CLR 24 9 39% 25 76.02 0.0
04 10:15 SE 11 16.09 Fair CLR 24 9 39% 25 76.02 0.0
04 09:55 E 11 16.09 Fair CLR 23 9 41% 76.02 0.0
04 09:35 SE 11 16.09 Fair CLR 22 9 44% 76.02 0.0
04 09:15 E 9 16.09 Fair CLR 22 9 44% 76 0.0
04 08:55 E 9 16.09 Fair CLR 21 9 46% 76 0.0
04 08:35 E 9 16.09 Fair CLR 20 9 49% 76 0.0
04 08:15 Calm 16.09 Fair CLR 19 9 52% 75.97 0.0
04 07:55 Calm 16.09 Fair CLR 19 8 49% 75.97 0.0
04 07:35 Calm 16.09 Fair CLR 19 8 49% 75.97 0.0
04 07:15 E 9 16.09 Fair CLR 19 8 49% 75.95 0.0
04 06:55 NE 11 16.09 Fair CLR 19 8 49% 75.95 0.0
04 06:35 E 11 16.09 A Few Clouds FEW055 19 8 49% 75.95 0.0
04 06:15 NE 11 16.09 A Few Clouds FEW055 19 8 49% 75.95 0.0
04 05:55 NE 13 16.09 A Few Clouds FEW055 19 8 49% 75.95 0.0
04 05:35 E 13 16.09 Fair CLR 19 8 49% 75.92 0.0
04 05:15 E 9 16.09 Fair CLR 19 8 49% 75.95 0.0
04 04:50 E 11 16.09 A Few Clouds FEW055 20 8 46% 75.95 0.0
04 04:35 E 13 16.09 Fair CLR 20 8 46% 75.95 0.0
04 04:15 E 11 16.09 Fair CLR 20 8 46% 75.97 0.0
04 03:55 E 13 16.09 Fair CLR 20 8 46% 75.97 0.0
04 03:35 E 11 16.09 Fair CLR 21 8 43% 75.97 0.0
04 03:15 E 11 16.09 Fair CLR 21 8 43% 75.97 0.0
04 02:55 SE 13 16.09 Fair CLR 22 8 41% 76 0.0
04 02:35 SE 13 16.09 Fair CLR 22 8 41% 76.02 0.0
04 02:15 SE 15 G 26 16.09 Fair CLR 23 8 38% 76.02 0.0
04 01:55 SE 13 16.09 Fair CLR 22 8 41% 76.02 0.0
04 01:35 Vrbl 6 16.09 Fair CLR 22 8 41% 76.02 0.0
04 01:15 Calm 16.09 Fair CLR 22 8 41% 76.02 0.0
04 00:35 SE 9 16.09 Fair CLR 23 8 38% 76.05 0.0
04 00:15 NE 15 16.09 Fair CLR 24 8 36% 25 76.05 0.0
03 23:55 N 17 16.09 Fair CLR 24 8 36% 25 76.1 0.0
03 23:35 NE 15 16.09 A Few Clouds FEW065 FEW075 FEW090 25 8 34% 26 76.1 0.0
03 23:15 NE 19 16.09 Mostly Cloudy FEW050 FEW070 BKN080 25 8 34% 26 76.07 0.0
03 22:55 N 13 16.09 Mostly Cloudy FEW050 SCT070 BKN075 26 7 30% 26 76.12 0.0
03 22:35 NE 7 16.09 Mostly Cloudy FEW080 BKN110 26 6 28% 26 76.07 0.0
03 22:15 NE 13 16.09 A Few Clouds FEW120 26 5 26% 26 76.05 0.0
03 21:55 NE 9 16.09 Fair CLR 26 5 26% 26 76.02 0.0
03 21:35 NE 13 16.09 Fair CLR 27 5 24% 26 76 0.0
03 21:15 E 11 16.09 Fair CLR 27 5 24% 26 75.97 0.0
03 20:55 E 13 16.09 Fair CLR 27 5 24% 26 75.95 0.0
03 20:35 E 11 16.09 Fair CLR 28 5 23% 27 75.97 0.0
03 20:15 SE 6 16.09 Fair CLR 29 5 22% 28 75.97 0.0
03 19:55 E 6 16.09 Fair CLR 29 5 22% 28 76 0.0
03 19:35 E 6 16.09 Fair CLR 29 5 22% 28 76.02 0.0
03 19:15 Vrbl 7 16.09 Fair CLR 29 5 22% 28 76 0.0
03 18:55 E 7 16.09 Fair CLR 29 5 22% 28 76 0.0
03 18:35 E 9 G 22 16.09 Fair CLR 30 5 20% 28 76 0.0
03 18:15 E 15 16.09 Fair CLR 30 5 20% 28 76.02 0.0
03 17:55 E 6 G 20 16.09 Fair CLR 29 5 22% 28 76.05 0.0
03 17:35 E 15 16.09 Fair CLR 29 5 22% 28 76.05 0.0
03 17:15 Calm 16.09 Fair CLR 28 5 23% 27 76.07 0.0
03 16:55 Vrbl 9 16.09 Fair CLR 29 5 22% 28 76.1 0.0
03 16:35 E 15 16.09 Fair CLR 29 5 22% 28 76.12 0.0
Date Time (cdt) Wind (kph) Vis. (km) Weather Sky Cond. Air Dwpt Max. Min. Relative Humidity Wind Chill (°C) Heat Index (°C) altimeter (cm) sea level (mb) 1 hr 3 hr 6 hr
6 hour
Temperature (ºC) Pressure Precipitation (cm)